AF4EX Weather Reports


Display with metric or nautical units.
time (UTC)temp
F
wind
direction
speed
MPH
gust
MPH
rain 1hr
in
rain 24hr
in
rain mn
in
humidity
%
barometer
mb
20210920030022 76 90 0.0 0.0 0.10 0.24 0.24 97 1016.6
20210920025020 76 90 0.0 0.0 0.16 0.21 0.21 97 1016.6
20210920024018 76 90 0.0 0.0 0.16 0.20 0.20 97 1016.5
20210920023021 76 90 0.0 0.0 0.17 0.20 0.20 96 1016.4
20210920022019 76 90 0.0 0.0 0.18 0.20 0.20 96 1016.3
20210920021018 77 190 0.0 3.0 0.14 0.16 0.16 96 1016.4
20210920020018 77 90 0.0 0.0 0.13 0.13 0.13 95 1016.6
20210920015018 78 90 0.0 0.0 0.05 0.05 0.05 95 1016.4
20210920014519 78 90 0.0 0.0 0.05 0.05 0.05 95 1016.4
20210920013519 79 90 0.0 0.0 0.04 0.04 0.04 95 1016.4
20210920012517 79 90 0.0 0.0 0.02 0.02 0.02 94 1016.3
20210920011518 79 90 0.0 0.0 0.01 0.02 0.01 92 1016.1
20210920010519 79 90 0.0 0.0 0.01 0.02 0.01 91 1015.8
20210920005518 79 90 0.0 0.0 0.00 0.00 0.00 91 1015.7
20210920004518 79 90 0.0 0.0 0.00 0.00 0.00 91 1015.6
20210920003518 80 90 0.0 0.0 0.00 0.00 0.00 91 1015.5
20210920002518 80 90 0.0 0.0 0.00 0.00 0.00 90 1015.4
20210920001518 80 90 0.0 0.0 0.00 0.00 0.00 90 1015.3
20210920000518 80 90 0.0 0.0 0.00 0.00 0.00 89 1015.3
20210919235518 80 90 0.0 0.0 0.00 0.00 0.00 89 1015.2
20210919234518 80 90 0.0 0.0 0.00 0.00 0.00 89 1015.1
20210919233518 80 90 0.0 0.0 0.00 0.00 0.00 88 1015.1
20210919232518 80 90 0.0 0.0 0.00 0.00 0.00 88 1014.9
20210919231518 80 90 0.0 0.0 0.00 0.00 0.00 87 1014.9
20210919230518 80 90 0.0 0.0 0.00 0.00 0.00 86 1014.9
20210919225518 81 90 0.0 0.0 0.00 0.02 0.00 85 1014.8
20210919224518 81 90 0.0 0.0 0.00 0.04 0.00 85 1014.8
20210919223518 81 90 0.0 0.0 0.00 0.05 0.00 84 1015.0
20210919222518 81 90 0.0 0.0 0.00 0.05 0.00 83 1015.0
20210919221519 82 90 0.0 0.0 0.00 0.07 0.00 82 1014.7
20210919220518 82 90 0.0 0.0 0.00 0.12 0.00 81 1014.4
20210919215517 83 90 0.0 0.0 0.00 0.16 0.00 79 1014.3
20210919214518 84 90 0.0 0.0 0.00 0.19 0.00 78 1014.3
20210919213517 84 90 0.0 0.0 0.00 0.30 0.00 75 1014.3
20210919212519 86 90 0.0 0.0 0.00 0.32 0.00 74 1014.2
20210919211517 86 90 0.0 0.0 0.00 0.32 0.00 72 1014.3
20210919210518 86 90 0.0 0.0 0.00 0.32 0.00 71 1014.3
20210919205518 86 90 0.0 0.0 0.00 0.32 0.00 73 1014.4
20210919204518 85 90 0.0 0.0 0.00 0.32 0.00 73 1014.3
20210919203538 86 90 0.0 0.0 0.00 0.32 0.00 71 1014.2
20210919202518 87 90 0.0 0.0 0.00 0.32 0.00 71 1014.1
20210919201518 88 90 0.0 0.0 0.00 0.32 0.00 70 1014.2
20210919200518 87 90 0.0 0.0 0.00 0.32 0.00 71 1014.3
20210919195518 87 90 0.0 0.0 0.00 0.32 0.00 71 1014.4
20210919194518 88 90 0.0 0.0 0.00 0.32 0.00 72 1014.6
20210919193517 86 90 0.0 0.0 0.00 0.32 0.00 75 1014.6
20210919192519 86 90 0.0 0.0 0.00 0.32 0.00 77 1014.8
20210919191518 85 90 0.0 0.0 0.00 0.32 0.00 77 1014.9
20210919190519 86 90 0.0 0.0 0.00 0.32 0.00 75 1015.0
20210919185518 86 90 0.0 0.0 0.00 0.32 0.00 77 1015.1
20210919184518 85 90 0.0 0.0 0.00 0.32 0.00 78 1015.3
20210919183518 86 90 0.0 0.0 0.00 0.32 0.00 75 1015.4
20210919182518 88 90 0.0 0.0 0.00 0.32 0.00 71 1015.5
20210919181518 89 90 0.0 0.0 0.00 0.32 0.00 72 1015.6
20210919180518 88 90 0.0 0.0 0.00 0.32 0.00 69 1015.8
20210919175518 88 90 0.0 0.0 0.00 0.32 0.00 68 1016.0
20210919174518 89 90 0.0 0.0 0.00 0.32 0.00 67 1016.1
20210919173518 87 90 0.0 0.0 0.00 0.32 0.00 69 1016.3
20210919172519 87 90 0.0 0.0 0.00 0.32 0.00 68 1016.4
20210919171518 87 90 0.0 0.0 0.00 0.32 0.00 67 1016.6
20210919170519 88 90 0.0 0.0 0.00 0.32 0.00 67 1016.7
20210919165518 87 90 0.0 0.0 0.00 0.32 0.00 69 1016.9
20210919164519 86 90 0.0 0.0 0.00 0.32 0.00 71 1017.1
20210919163518 85 90 0.0 0.0 0.00 0.32 0.00 73 1017.2
20210919162518 85 90 0.0 0.0 0.00 0.32 0.00 74 1017.3
20210919161518 85 90 0.0 0.0 0.00 0.32 0.00 76 1017.3
20210919160518 86 90 0.0 0.0 0.00 0.32 0.00 77 1017.4
20210919155519 84 90 0.0 0.0 0.00 0.32 0.00 77 1017.4
20210919154525 83 90 0.0 0.0 0.00 0.32 0.00 81 1017.5
20210919153518 84 90 0.0 0.0 0.00 0.32 0.00 82 1017.4
20210919152518 83 90 0.0 0.0 0.00 0.32 0.00 82 1017.4
20210919151518 82 90 0.0 0.0 0.00 0.32 0.00 85 1017.5
20210919150518 81 90 0.0 0.0 0.00 0.32 0.00 89 1017.5
20210919145518 80 90 0.0 0.0 0.00 0.32 0.00 91 1017.5
20210919144520 79 90 0.0 0.0 0.00 0.32 0.00 93 1017.4
20210919143518 79 90 0.0 0.0 0.00 0.32 0.00 95 1017.4
20210919142518 78 90 0.0 0.0 0.00 0.32 0.00 98 1017.5
20210919141518 77 90 0.0 0.0 0.00 0.32 0.00 98 1017.3
20210919140518 77 90 0.0 0.0 0.00 0.32 0.00 99 1017.2
20210919135518 77 90 0.0 0.0 0.00 0.32 0.00 99 1017.2
20210919134518 76 90 0.0 0.0 0.00 0.32 0.00 99 1017.2
20210919133518 75 90 0.0 0.0 0.00 0.32 0.00 99 1017.2
20210919132519 75 90 0.0 0.0 0.00 0.32 0.00 99 1017.1
20210919131518 75 90 0.0 0.0 0.00 0.32 0.00 99 1017.0
20210919130523 75 90 0.0 0.0 0.00 0.32 0.00 99 1017.0
20210919125529 75 90 0.0 0.0 0.00 0.32 0.00 99 1017.0
20210919124519 75 90 0.0 0.0 0.00 0.32 0.00 99 1017.0
20210919123520 75 90 0.0 0.0 0.00 0.32 0.00 99 1016.9
20210919122518 75 90 0.0 0.0 0.00 0.32 0.00 99 1016.8
20210919121518 74 90 0.0 0.0 0.00 0.32 0.00 99 1016.8
20210919120518 74 90 0.0 0.0 0.00 0.32 0.00 99 1016.9
20210919115518 74 90 0.0 0.0 0.00 0.32 0.00 99 1016.8
20210919114519 74 90 0.0 0.0 0.00 0.32 0.00 99 1016.8
20210919113517 74 90 0.0 0.0 0.00 0.32 0.00 99 1016.7
20210919112518 73 90 0.0 0.0 0.00 0.32 0.00 99 1016.7
20210919111517 73 90 0.0 0.0 0.00 0.32 0.00 99 1016.6
20210919110519 73 90 0.0 0.0 0.00 0.32 0.00 99 1016.5
20210919105517 73 90 0.0 0.0 0.00 0.32 0.00 99 1016.4
20210919104518 73 90 0.0 0.0 0.00 0.32 0.00 99 1016.3
20210919103518 73 90 0.0 0.0 0.00 0.32 0.00 99 1016.3
20210919102519 73 90 0.0 0.0 0.00 0.32 0.00 99 1016.3
20210919101518 73 90 0.0 0.0 0.00 0.32 0.00 99 1016.2
20210919100517 73 90 0.0 0.0 0.00 0.32 0.00 99 1016.2
20210919095517 73 90 0.0 0.0 0.00 0.32 0.00 99 1016.1
20210919094517 73 90 0.0 0.0 0.00 0.32 0.00 99 1016.0
20210919093518 73 90 0.0 0.0 0.00 0.32 0.00 99 1015.9
20210919092517 73 90 0.0 0.0 0.00 0.32 0.00 99 1015.9
20210919091517 73 90 0.0 0.0 0.00 0.32 0.00 99 1015.8
20210919090517 73 90 0.0 0.0 0.00 0.32 0.00 99 1015.7
20210919085518 73 90 0.0 0.0 0.00 0.32 0.00 99 1015.6
20210919084518 73 90 0.0 0.0 0.00 0.32 0.00 99 1015.7
20210919083518 73 90 0.0 0.0 0.00 0.32 0.00 99 1015.7
20210919082518 73 90 0.0 0.0 0.00 0.32 0.00 99 1015.6
20210919081517 74 90 0.0 0.0 0.00 0.32 0.00 99 1015.6
20210919080517 74 90 0.0 0.0 0.00 0.32 0.00 99 1015.7
20210919075518 74 90 0.0 0.0 0.00 0.32 0.00 99 1015.7
20210919074519 74 90 0.0 0.0 0.00 0.32 0.00 99 1015.8
20210919073517 74 90 0.0 0.0 0.00 0.32 0.00 99 1015.9
20210919072517 74 90 0.0 0.0 0.00 0.32 0.00 99 1016.0
20210919071519 74 90 0.0 0.0 0.00 0.32 0.00 99 1016.0
20210919070518 74 90 0.0 0.0 0.00 0.32 0.00 99 1016.1
20210919065518 74 90 0.0 0.0 0.00 0.32 0.00 99 1016.1
20210919064518 74 90 0.0 0.0 0.00 0.32 0.00 99 1016.2
20210919063517 74 90 0.0 0.0 0.00 0.32 0.00 99 1016.3
20210919062517 74 90 0.0 0.0 0.00 0.32 0.00 99 1016.4
20210919061517 74 90 0.0 0.0 0.00 0.32 0.00 99 1016.4
20210919060517 74 90 0.0 0.0 0.00 0.32 0.00 99 1016.5
20210919055517 75 90 0.0 0.0 0.00 0.32 0.00 99 1016.6
20210919054519 75 90 0.0 0.0 0.00 0.32 0.00 99 1016.7
20210919053522 75 90 0.0 0.0 0.00 0.32 0.00 99 1016.8
20210919052517 75 90 0.0 0.0 0.00 0.32 0.00 99 1016.9
20210919051517 75 90 0.0 0.0 0.00 0.32 0.00 98 1016.9
20210919050517 75 90 0.0 0.0 0.00 0.32 0.00 98 1016.9
20210919045517 75 90 0.0 0.0 0.00 0.32 0.00 98 1017.0
20210919044517 75 90 0.0 0.0 0.00 0.32 0.00 98 1017.1
20210919043517 75 90 0.0 0.0 0.00 0.32 0.00 98 1017.3
20210919042522 75 90 0.0 0.0 0.00 0.32 0.00 98 1017.4
20210919041517 76 90 0.0 0.0 0.00 0.32 0.00 98 1017.4
20210919040517 76 90 0.0 0.0 0.00 0.33 0.00 98 1017.4
20210919035518 76 90 0.0 0.0 0.00 0.33 0.33 98 1017.4
20210919034519 76 90 0.0 0.0 0.00 0.33 0.33 98 1017.4
20210919033519 76 90 0.0 0.0 0.00 0.33 0.33 98 1017.4
20210919032518 76 90 0.0 0.0 0.00 0.33 0.33 98 1017.5
20210919031519 76 90 0.0 0.0 0.00 0.33 0.33 98 1017.4
20210919030519 76 90 0.0 0.0 0.00 0.34 0.33 98 1017.3